M/V Lauren Marie — WBY5971 — position and weather

sailwx.info

Track history (hours):
 
Tides and Currents Weather Stations Pressure Air Temp Water Temp Dewpoint Dewpoint Depression Visibility Wind Speed Wind Dir Waves Ship Positions

M/V Lauren Marie

Owner: CROSBY INSHORE MARINE SERVICE INC, GOLDEN MEADOW, LA. More information available from US FCC via Universal Licensing System and Coast Guard Vessel Documentation Center.

Last reported at 2017-Nov-15 16:55 UTC. Time now 2017-Nov-19 06:39 UTC.
Position N 30°04' W 093°36'.

; draft 25.5 m.

Type: Towing. MMSI: 367028690.

Date/timePositionNaut miles runAvg speedWind from/ knotsBaromVisibWave heightAir tempDewpointWater temp
2017-Nov-15 16:55N 30°04' W 093°36'2 5.5
2017-Nov-15 16:30N 30°04' W 093°34'3 5.3
2017-Nov-15 16:00N 30°04' W 093°31'3 5.3
2017-Nov-15 15:30N 30°04' W 093°28'3 5.3
2017-Nov-15 15:00N 30°04' W 093°24'3 5.0
2017-Nov-15 14:30N 30°04' W 093°22'2 4.8
2017-Nov-15 14:00N 30°05' W 093°20'2 3.7
2017-Nov-15 13:30N 30°05' W 093°18'1 2.4
2017-Nov-15 13:00N 30°04' W 093°16'0 0.0
2017-Nov-15 12:30N 30°05' W 093°16'0 0.0
2017-Nov-15 12:00N 30°04' W 093°16'0 0.4
2017-Nov-15 11:30N 30°04' W 093°16'0 0.3
2017-Nov-15 11:00N 30°04' W 093°16'1 2.9
2017-Nov-15 10:30N 30°03' W 093°16'2 4.4
2017-Nov-15 10:00N 30°01' W 093°14'2 3.6
2017-Nov-15 09:30N 29°60' W 093°13'1 2.6
2017-Nov-15 09:00N 29°59' W 093°12'1 2.8
2017-Nov-15 08:30N 29°58' W 093°11'2 4.7
2017-Nov-15 08:00N 29°56' W 093°09'2 4.8
2017-Nov-15 07:30N 29°56' W 093°06'2 4.9
2017-Nov-15 07:00N 29°56' W 093°03'32 4.7
2017-Nov-15 00:14N 29°54' W 092°27'1 5.1
2017-Nov-14 23:59N 29°53' W 092°26'2 4.9
2017-Nov-14 23:30N 29°53' W 092°23'2 4.7
2017-Nov-14 23:00N 29°51' W 092°21'3 5.1
2017-Nov-14 22:30N 29°50' W 092°18'2 4.9
2017-Nov-14 22:00N 29°49' W 092°16'3 5.4
2017-Nov-14 21:30N 29°48' W 092°13'1 2.3
2017-Nov-14 21:00N 29°47' W 092°12'2 3.8
2017-Nov-14 20:30N 29°47' W 092°10'3 5.4
2017-Nov-14 20:00N 29°47' W 092°07'3 5.3
2017-Nov-14 19:30N 29°48' W 092°04'3 5.4
2017-Nov-14 18:58N 29°49' W 092°01'2 5.3
2017-Nov-14 18:30N 29°50' W 091°58'3 4.9
2017-Nov-14 17:58N 29°51' W 091°55'52 4.6
2017-Nov-14 06:46N 29°36' W 090°58'1 5.4
2017-Nov-14 06:29N 29°35' W 090°58'3 5.3
2017-Nov-14 05:59N 29°33' W 090°55'3 5.3
2017-Nov-14 05:30N 29°32' W 090°52'3 5.4
2017-Nov-14 05:00N 29°32' W 090°49'3 5.3
2017-Nov-14 04:30N 29°32' W 090°46'2 4.8
2017-Nov-14 04:00N 29°34' W 090°44'2 4.1
2017-Nov-14 03:30N 29°35' W 090°43'2 3.4
2017-Nov-14 03:00N 29°36' W 090°41'3 5.1
2017-Nov-14 02:30N 29°35' W 090°39'2 4.8
2017-Nov-14 02:00N 29°35' W 090°36'2 4.8
2017-Nov-14 01:30N 29°34' W 090°33'3 5.2
2017-Nov-14 00:59N 29°34' W 090°30'  
2017-Nov-11 18:22N 29°33' W 090°27'3 6.5
2017-Nov-11 17:58N 29°34' W 090°30'3 6.4
2017-Nov-11 17:30N 29°34' W 090°34'3 6.2
2017-Nov-11 17:00N 29°35' W 090°37'3 6.5
2017-Nov-11 16:30N 29°36' W 090°40'2 3.9
2017-Nov-11 16:00N 29°36' W 090°43'2 4.3
2017-Nov-11 15:30N 29°34' W 090°44'2 4.8
2017-Nov-11 15:00N 29°32' W 090°46'3 6.5
2017-Nov-11 14:30N 29°32' W 090°50'4 6.4
2017-Nov-11 13:56N 29°33' W 090°54'3 6.7
2017-Nov-11 13:30N 29°34' W 090°57'111 5.2
2017-Nov-10 16:08N 29°56' W 093°02'1 5.6
2017-Nov-10 15:57N 29°56' W 093°03'3 5.8
2017-Nov-10 15:30N 29°56' W 093°06'3 5.8
2017-Nov-10 15:00N 29°56' W 093°09'3 5.8
2017-Nov-10 14:30N 29°58' W 093°12'3 5.9
2017-Nov-10 14:00N 30°01' W 093°14'3 5.7
2017-Nov-10 13:30N 30°03' W 093°16'3 5.7
2017-Nov-10 13:00N 30°05' W 093°17'1 2.3
2017-Nov-10 12:30N 30°06' W 093°18'0 0.0
2017-Nov-10 12:00N 30°06' W 093°18'0 0.0
2017-Nov-10 11:30N 30°06' W 093°18'0 0.0
2017-Nov-10 11:00N 30°06' W 093°18'0 0.0
2017-Nov-10 10:30N 30°06' W 093°18'0 0.0
2017-Nov-10 10:00N 30°06' W 093°18'0 0.0
2017-Nov-10 09:30N 30°06' W 093°18'0 0.0
2017-Nov-10 09:00N 30°06' W 093°18'0 0.3
2017-Nov-10 08:30N 30°06' W 093°18'2 3.9
2017-Nov-10 08:00N 30°05' W 093°20'2 3.9
2017-Nov-10 07:30N 30°04' W 093°22'3 5.6
2017-Nov-10 07:00N 30°04' W 093°25'3 6.5
2017-Nov-10 06:30N 30°04' W 093°29'3 6.5
2017-Nov-10 06:00N 30°04' W 093°32'3 6.6
2017-Nov-10 05:30N 30°04' W 093°36'3 6.3
2017-Nov-10 05:00N 30°04' W 093°40'  
Track history (hours):
 
Tides and Currents Weather Stations Pressure Air Temp Water Temp Dewpoint Dewpoint Depression Visibility Wind Speed Wind Dir Waves Ship Positions

M/V Lauren Marie

Owner: CROSBY INSHORE MARINE SERVICE INC, GOLDEN MEADOW, LA. More information available from US FCC via Universal Licensing System and Coast Guard Vessel Documentation Center.

Last reported at 2017-Nov-15 16:55 UTC. Time now 2017-Nov-19 06:39 UTC.
Position N 30°04' W 093°36'.

; draft 25.5 m.

Type: Towing. MMSI: 367028690.

Date/timePositionNaut miles runAvg speedWind from/ knotsBaromVisibWave heightAir tempDewpointWater temp
2017-Nov-15 16:55N 30°04' W 093°36'2 5.5
2017-Nov-15 16:30N 30°04' W 093°34'3 5.3
2017-Nov-15 16:00N 30°04' W 093°31'3 5.3
2017-Nov-15 15:30N 30°04' W 093°28'3 5.3
2017-Nov-15 15:00N 30°04' W 093°24'3 5.0
2017-Nov-15 14:30N 30°04' W 093°22'2 4.8
2017-Nov-15 14:00N 30°05' W 093°20'2 3.7
2017-Nov-15 13:30N 30°05' W 093°18'1 2.4
2017-Nov-15 13:00N 30°04' W 093°16'0 0.0
2017-Nov-15 12:30N 30°05' W 093°16'0 0.0
2017-Nov-15 12:00N 30°04' W 093°16'0 0.4
2017-Nov-15 11:30N 30°04' W 093°16'0 0.3
2017-Nov-15 11:00N 30°04' W 093°16'1 2.9
2017-Nov-15 10:30N 30°03' W 093°16'2 4.4
2017-Nov-15 10:00N 30°01' W 093°14'2 3.6
2017-Nov-15 09:30N 29°60' W 093°13'1 2.6
2017-Nov-15 09:00N 29°59' W 093°12'1 2.8
2017-Nov-15 08:30N 29°58' W 093°11'2 4.7
2017-Nov-15 08:00N 29°56' W 093°09'2 4.8
2017-Nov-15 07:30N 29°56' W 093°06'2 4.9
2017-Nov-15 07:00N 29°56' W 093°03'32 4.7
2017-Nov-15 00:14N 29°54' W 092°27'1 5.1
2017-Nov-14 23:59N 29°53' W 092°26'2 4.9
2017-Nov-14 23:30N 29°53' W 092°23'2 4.7
2017-Nov-14 23:00N 29°51' W 092°21'3 5.1
2017-Nov-14 22:30N 29°50' W 092°18'2 4.9
2017-Nov-14 22:00N 29°49' W 092°16'3 5.4
2017-Nov-14 21:30N 29°48' W 092°13'1 2.3
2017-Nov-14 21:00N 29°47' W 092°12'2 3.8
2017-Nov-14 20:30N 29°47' W 092°10'3 5.4
2017-Nov-14 20:00N 29°47' W 092°07'3 5.3
2017-Nov-14 19:30N 29°48' W 092°04'3 5.4
2017-Nov-14 18:58N 29°49' W 092°01'2 5.3
2017-Nov-14 18:30N 29°50' W 091°58'3 4.9
2017-Nov-14 17:58N 29°51' W 091°55'52 4.6
2017-Nov-14 06:46N 29°36' W 090°58'1 5.4
2017-Nov-14 06:29N 29°35' W 090°58'3 5.3
2017-Nov-14 05:59N 29°33' W 090°55'3 5.3
2017-Nov-14 05:30N 29°32' W 090°52'3 5.4
2017-Nov-14 05:00N 29°32' W 090°49'3 5.3
2017-Nov-14 04:30N 29°32' W 090°46'2 4.8
2017-Nov-14 04:00N 29°34' W 090°44'2 4.1
2017-Nov-14 03:30N 29°35' W 090°43'2 3.4
2017-Nov-14 03:00N 29°36' W 090°41'3 5.1
2017-Nov-14 02:30N 29°35' W 090°39'2 4.8
2017-Nov-14 02:00N 29°35' W 090°36'2 4.8
2017-Nov-14 01:30N 29°34' W 090°33'3 5.2
2017-Nov-14 00:59N 29°34' W 090°30'  
2017-Nov-11 18:22N 29°33' W 090°27'3 6.5
2017-Nov-11 17:58N 29°34' W 090°30'3 6.4
2017-Nov-11 17:30N 29°34' W 090°34'3 6.2
2017-Nov-11 17:00N 29°35' W 090°37'3 6.5
2017-Nov-11 16:30N 29°36' W 090°40'2 3.9
2017-Nov-11 16:00N 29°36' W 090°43'2 4.3
2017-Nov-11 15:30N 29°34' W 090°44'2 4.8
2017-Nov-11 15:00N 29°32' W 090°46'3 6.5
2017-Nov-11 14:30N 29°32' W 090°50'4 6.4
2017-Nov-11 13:56N 29°33' W 090°54'3 6.7
2017-Nov-11 13:30N 29°34' W 090°57'111 5.2
2017-Nov-10 16:08N 29°56' W 093°02'1 5.6
2017-Nov-10 15:57N 29°56' W 093°03'3 5.8
2017-Nov-10 15:30N 29°56' W 093°06'3 5.8
2017-Nov-10 15:00N 29°56' W 093°09'3 5.8
2017-Nov-10 14:30N 29°58' W 093°12'3 5.9
2017-Nov-10 14:00N 30°01' W 093°14'3 5.7
2017-Nov-10 13:30N 30°03' W 093°16'3 5.7
2017-Nov-10 13:00N 30°05' W 093°17'1 2.3
2017-Nov-10 12:30N 30°06' W 093°18'0 0.0
2017-Nov-10 12:00N 30°06' W 093°18'0 0.0
2017-Nov-10 11:30N 30°06' W 093°18'0 0.0
2017-Nov-10 11:00N 30°06' W 093°18'0 0.0
2017-Nov-10 10:30N 30°06' W 093°18'0 0.0
2017-Nov-10 10:00N 30°06' W 093°18'0 0.0
2017-Nov-10 09:30N 30°06' W 093°18'0 0.0
2017-Nov-10 09:00N 30°06' W 093°18'0 0.3
2017-Nov-10 08:30N 30°06' W 093°18'2 3.9
2017-Nov-10 08:00N 30°05' W 093°20'2 3.9
2017-Nov-10 07:30N 30°04' W 093°22'3 5.6
2017-Nov-10 07:00N 30°04' W 093°25'3 6.5
2017-Nov-10 06:30N 30°04' W 093°29'3 6.5
2017-Nov-10 06:00N 30°04' W 093°32'3 6.6
2017-Nov-10 05:30N 30°04' W 093°36'3 6.3
2017-Nov-10 05:00N 30°04' W 093°40'  

Dump ship's entire track history